createdAt,value
2023-01-29T00:00:32.797Z,13.50
2023-01-29T00:11:03.017Z,12.70
2023-01-29T00:21:11.275Z,16.20
2023-01-29T00:31:18.442Z,18.20
2023-01-29T00:41:41.889Z,20.30
2023-01-29T00:52:10.311Z,18.90
2023-01-29T01:02:36.259Z,17.80
2023-01-29T01:12:41.150Z,14.40
2023-01-29T01:22:45.185Z,15.00
2023-01-29T01:32:56.458Z,14.80
2023-01-29T01:43:01.949Z,13.30
2023-01-29T01:53:11.215Z,16.40
2023-01-29T02:03:34.040Z,10.10
2023-01-29T02:13:38.737Z,11.90
2023-01-29T02:24:10.190Z,11.10
2023-01-29T02:34:30.223Z,11.60
2023-01-29T02:45:08.313Z,12.70
2023-01-29T02:55:53.253Z,14.30
2023-01-29T03:06:06.805Z,11.60
2023-01-29T03:16:33.930Z,11.40
2023-01-29T03:26:56.646Z,12.80
2023-01-29T03:37:09.288Z,12.10
2023-01-29T03:47:31.568Z,10.70
2023-01-29T03:57:42.978Z,10.10
2023-01-29T04:07:55.413Z,10.60
2023-01-29T04:17:59.481Z,7.30
2023-01-29T04:28:54.790Z,7.30
2023-01-29T04:39:02.027Z,7.70
2023-01-29T04:49:34.782Z,7.80
2023-01-29T04:59:53.660Z,8.40
2023-01-29T05:09:57.605Z,8.70
2023-01-29T05:20:01.515Z,9.10
2023-01-29T05:30:06.491Z,9.90
2023-01-29T05:40:11.027Z,9.30
2023-01-29T05:50:16.656Z,11.20
2023-01-29T06:00:21.101Z,10.40
2023-01-29T06:10:25.326Z,11.80
2023-01-29T06:20:32.256Z,12.70
2023-01-29T06:30:39.336Z,12.20
2023-01-29T06:40:43.306Z,11.40
2023-01-29T06:50:50.705Z,10.90
2023-01-29T07:00:54.768Z,11.40
2023-01-29T07:11:02.561Z,10.20
2023-01-29T07:21:07.819Z,9.30
2023-01-29T07:31:13.911Z,6.90
2023-01-29T07:41:25.649Z,7.60
2023-01-29T07:51:29.644Z,7.20
2023-01-29T08:01:33.523Z,5.10
2023-01-29T08:11:40.737Z,5.50
2023-01-29T08:21:44.929Z,4.70
2023-01-29T08:31:49.478Z,4.50
2023-01-29T08:41:53.510Z,6.40
2023-01-29T08:51:57.501Z,6.90
2023-01-29T09:02:01.644Z,5.80
2023-01-29T09:12:06.531Z,7.20
2023-01-29T09:22:11.953Z,5.60
2023-01-29T09:32:23.233Z,6.10
2023-01-29T09:42:44.813Z,5.30
2023-01-29T09:53:18.001Z,5.20
2023-01-29T10:03:55.914Z,5.80
2023-01-29T10:14:38.180Z,5.00
2023-01-29T10:24:58.046Z,5.70
2023-01-29T10:35:25.195Z,5.60
2023-01-29T10:45:50.000Z,5.30
2023-01-29T10:55:56.776Z,7.20
2023-01-29T11:06:10.747Z,7.30
2023-01-29T11:16:14.849Z,5.90
2023-01-29T11:26:34.123Z,6.30
2023-01-29T11:36:41.537Z,7.00
2023-01-29T11:47:06.824Z,8.20
2023-01-29T11:57:34.705Z,7.00
2023-01-29T12:07:43.518Z,6.70
2023-01-29T12:18:17.770Z,8.10
2023-01-29T12:28:51.194Z,8.40
2023-01-29T12:38:56.622Z,7.40
2023-01-29T12:49:05.910Z,8.00
2023-01-29T12:59:47.418Z,7.90
2023-01-29T13:10:18.302Z,9.10
2023-01-29T13:21:04.755Z,9.30
2023-01-29T13:31:51.685Z,10.20
2023-01-29T13:42:53.835Z,9.70
2023-01-29T13:53:59.071Z,10.60
2023-01-29T14:04:42.121Z,10.10
2023-01-29T14:15:08.820Z,12.30
2023-01-29T14:36:30.850Z,11.30
2023-01-29T14:47:12.537Z,12.60
2023-01-29T14:57:46.372Z,15.00
2023-01-29T15:08:09.240Z,12.20
2023-01-29T15:18:42.282Z,19.00
2023-01-29T15:29:04.517Z,16.80
2023-01-29T15:39:46.080Z,20.30
2023-01-29T16:00:11.935Z,16.30
2023-01-29T16:10:22.073Z,14.40
2023-01-29T16:20:52.577Z,20.30
2023-01-29T16:31:41.086Z,21.00
2023-01-29T16:42:20.698Z,39.50
2023-01-29T16:52:32.559Z,37.70
2023-01-29T17:02:55.531Z,30.20
2023-01-29T17:13:28.321Z,37.70
2023-01-29T17:23:36.247Z,39.60
2023-01-29T17:33:48.622Z,44.10
2023-01-29T17:44:20.075Z,38.60
2023-01-29T17:54:28.599Z,41.70
2023-01-29T18:04:37.273Z,51.60
2023-01-29T18:15:24.443Z,59.00
2023-01-29T18:26:21.316Z,42.60
2023-01-29T18:36:29.581Z,40.70
2023-01-29T18:46:50.164Z,55.70
2023-01-29T18:57:13.871Z,61.60
2023-01-29T19:08:17.487Z,55.20
2023-01-29T19:29:17.131Z,54.30
2023-01-29T19:39:35.319Z,62.40
2023-01-29T19:49:43.257Z,61.70
2023-01-29T20:00:19.276Z,65.70
2023-01-29T20:10:59.150Z,52.20
2023-01-29T20:21:33.112Z,57.10
2023-01-29T20:32:09.774Z,52.50
2023-01-29T20:42:39.079Z,52.70
2023-01-29T20:52:46.329Z,47.60
2023-01-29T21:03:38.738Z,51.90
2023-01-29T21:13:48.337Z,61.70
2023-01-29T21:23:54.019Z,66.70
2023-01-29T21:34:02.177Z,49.30
2023-01-29T21:44:12.627Z,57.80
2023-01-29T21:54:46.171Z,52.50
2023-01-29T22:05:16.489Z,52.40
2023-01-29T22:16:12.272Z,45.70
2023-01-29T22:27:06.126Z,49.60
2023-01-29T22:37:10.395Z,48.10
2023-01-29T22:47:14.350Z,41.00
2023-01-29T22:57:18.826Z,45.90
2023-01-29T23:07:36.618Z,49.70
2023-01-29T23:17:59.618Z,48.70
2023-01-29T23:28:13.008Z,48.70
2023-01-29T23:39:21.152Z,47.40
2023-01-29T23:49:42.545Z,50.90
2023-01-29T23:59:49.484Z,47.70
